Time;durP1;ratioP1;P1;durP2;ratioP2;P2;SDS_P1;SDS_P2;PMS_P1;PMS_P2;Temp;Humidity;BMP_temperature;BMP_pressure;BME280_temperature;BME280_humidity;BME280_pressure;Samples;Min_cycle;Max_cycle;Signal;HPM_P1;HPM_P2
2022/08/31 00:06:06;;;;;;;2.13;1.42;;;15.50;99.90;;;;;;5043887;28;20482;-56
2022/08/31 00:08:33;;;;;;;1.10;1.00;;;15.50;99.90;;;;;;5037562;28;20202;-56
2022/08/31 00:10:59;;;;;;;1.55;0.90;;;15.50;99.90;;;;;;5039276;28;20041;-53
2022/08/31 00:13:26;;;;;;;3.17;1.10;;;15.60;99.90;;;;;;5042162;28;20079;-56
2022/08/31 00:15:52;;;;;;;1.70;0.90;;;15.50;99.90;;;;;;5041411;28;20043;-55
2022/08/31 00:18:19;;;;;;;1.88;0.98;;;15.60;99.90;;;;;;5040715;28;20049;-56
2022/08/31 00:20:46;;;;;;;1.55;0.93;;;15.60;99.90;;;;;;5043232;28;20048;-57
2022/08/31 00:23:14;;;;;;;2.13;1.10;;;15.60;99.90;;;;;;5041613;28;20124;-55
2022/08/31 00:25:43;;;;;;;1.20;0.93;;;15.60;99.90;;;;;;5043500;28;20120;-56
2022/08/31 00:28:09;;;;;;;2.65;0.90;;;15.50;99.90;;;;;;5042211;28;20132;-56
2022/08/31 00:30:35;;;;;;;2.33;1.05;;;15.50;99.90;;;;;;5043729;28;20086;-56
2022/08/31 00:33:02;;;;;;;2.08;1.20;;;15.50;99.90;;;;;;5043667;28;20045;-56
2022/08/31 00:35:29;;;;;;;1.60;1.00;;;15.50;99.90;;;;;;5045290;28;20499;-56
2022/08/31 00:37:55;;;;;;;1.83;0.82;;;15.50;99.90;;;;;;5044623;28;20041;-56
2022/08/31 00:40:21;;;;;;;1.15;0.73;;;15.50;99.90;;;;;;5042305;28;20387;-56
2022/08/31 00:42:46;;;;;;;1.65;0.77;;;15.50;99.90;;;;;;5045098;28;20037;-56
2022/08/31 00:45:12;;;;;;;2.92;0.88;;;15.40;99.90;;;;;;5040962;28;20407;-56
2022/08/31 00:47:39;;;;;;;2.93;1.03;;;15.40;99.90;;;;;;5041065;28;20060;-56
2022/08/31 00:50:08;;;;;;;1.00;0.90;;;15.40;99.90;;;;;;5043345;28;20059;-55
2022/08/31 00:52:38;;;;;;;3.80;0.70;;;15.30;99.90;;;;;;5044166;28;20075;-56
2022/08/31 00:55:06;;;;;;;1.60;0.80;;;15.30;99.90;;;;;;5040268;28;20045;-57
2022/08/31 00:57:38;;;;;;;2.35;0.80;;;15.30;99.90;;;;;;5045109;28;20072;-56
2022/08/31 01:00:08;;;;;;;2.20;0.90;;;15.20;99.90;;;;;;5047078;28;20147;-54
2022/08/31 01:02:34;;;;;;;1.75;0.80;;;15.20;99.90;;;;;;5044670;28;21348;-54
2022/08/31 01:04:59;;;;;;;1.60;0.70;;;15.10;99.90;;;;;;5044052;28;20048;-55
2022/08/31 01:07:26;;;;;;;1.77;0.80;;;15.10;99.90;;;;;;5044873;28;20041;-55
2022/08/31 01:09:53;;;;;;;1.10;0.63;;;15.00;99.90;;;;;;5046015;28;20344;-56
2022/08/31 01:12:19;;;;;;;1.17;0.65;;;15.00;99.90;;;;;;5044823;28;20524;-54
2022/08/31 01:14:45;;;;;;;1.65;0.80;;;15.00;99.90;;;;;;5044789;28;20135;-52
2022/08/31 01:17:10;;;;;;;0.88;0.73;;;15.00;99.90;;;;;;5040214;28;21352;-54
2022/08/31 01:19:55;;;;;;;1.65;0.70;;;15.00;99.90;;;;;;5046553;28;20407;-55
2022/08/31 01:22:56;;;;;;;1.50;0.50;;;14.80;99.90;;;;;;5044879;28;20045;-55
2022/08/31 01:25:22;;;;;;;1.73;0.60;;;14.90;99.90;;;;;;5000798;28;20041;-54
2022/08/31 01:27:48;;;;;;;0.70;0.70;;;14.80;99.90;;;;;;5045851;28;20150;-56
2022/08/31 01:30:21;;;;;;;1.75;0.80;;;14.80;99.90;;;;;;5044156;28;20128;-55
2022/08/31 01:32:47;;;;;;;0.63;0.50;;;14.70;99.90;;;;;;5039932;28;20081;-54
2022/08/31 01:35:13;;;;;;;0.98;0.75;;;14.90;99.90;;;;;;5042615;28;20080;-54
2022/08/31 01:37:39;;;;;;;1.08;0.77;;;14.80;99.90;;;;;;5035924;28;20052;-56
2022/08/31 01:40:05;;;;;;;1.55;0.70;;;14.60;99.90;;;;;;5041088;28;20049;-55
2022/08/31 01:42:31;;;;;;;3.33;0.80;;;14.60;99.90;;;;;;5044978;28;20339;-55
2022/08/31 01:44:57;;;;;;;0.73;0.70;;;14.60;99.90;;;;;;5043771;28;20044;-55
2022/08/31 01:47:23;;;;;;;2.65;0.80;;;14.50;99.90;;;;;;5039718;28;20051;-55
2022/08/31 01:49:48;;;;;;;1.05;0.68;;;14.50;99.90;;;;;;5044488;28;20033;-55
2022/08/31 01:52:14;;;;;;;1.08;0.70;;;14.40;99.90;;;;;;5047770;28;20102;-55
2022/08/31 01:54:39;;;;;;;1.17;1.00;;;14.40;99.90;;;;;;5049898;28;20049;-53
2022/08/31 01:57:05;;;;;;;0.68;0.50;;;14.40;99.90;;;;;;5048408;28;20037;-55
2022/08/31 01:59:31;;;;;;;1.13;0.77;;;14.30;99.90;;;;;;5045028;28;20127;-57
2022/08/31 02:01:56;;;;;;;0.80;0.80;;;14.30;99.90;;;;;;5046518;28;20040;-56
2022/08/31 02:04:26;;;;;;;1.50;0.80;;;14.30;99.90;;;;;;5047682;28;20441;-55
2022/08/31 02:06:54;;;;;;;0.70;0.70;;;14.20;99.90;;;;;;5047422;28;20037;-54
2022/08/31 02:09:20;;;;;;;0.90;0.60;;;14.20;99.90;;;;;;5051435;28;20076;-53
2022/08/31 02:11:46;;;;;;;0.65;0.60;;;14.20;99.90;;;;;;5044845;28;20033;-53
2022/08/31 02:14:11;;;;;;;1.63;0.70;;;14.20;99.90;;;;;;5045756;28;20044;-55
2022/08/31 02:16:38;;;;;;;0.55;0.55;;;14.10;99.90;;;;;;5043715;28;20037;-54
2022/08/31 02:19:05;;;;;;;1.92;0.75;;;14.10;99.90;;;;;;5040666;28;20466;-56
2022/08/31 02:21:31;;;;;;;1.50;0.60;;;14.00;99.90;;;;;;5045544;28;20040;-56
2022/08/31 02:23:56;;;;;;;0.65;0.60;;;13.90;99.90;;;;;;5046904;28;20075;-54
2022/08/31 02:26:23;;;;;;;0.70;0.70;;;13.90;99.90;;;;;;5048374;28;20477;-54
2022/08/31 02:28:48;;;;;;;1.88;0.73;;;13.90;99.90;;;;;;5046753;28;20491;-55
2022/08/31 02:31:14;;;;;;;1.65;0.82;;;13.80;99.90;;;;;;5045450;28;20041;-55
2022/08/31 02:33:39;;;;;;;2.90;0.60;;;13.70;99.90;;;;;;5042990;28;20073;-56
2022/08/31 02:36:06;;;;;;;0.60;0.60;;;13.70;99.90;;;;;;5048117;28;20040;-56
2022/08/31 02:38:33;;;;;;;1.63;0.70;;;13.70;99.90;;;;;;5045562;28;20049;-55
2022/08/31 02:40:59;;;;;;;1.77;0.73;;;13.70;99.90;;;;;;5046440;28;20066;-56
2022/08/31 02:43:25;;;;;;;2.60;0.70;;;13.60;99.90;;;;;;5045566;28;20183;-55
2022/08/31 02:45:51;;;;;;;1.02;0.60;;;13.60;99.90;;;;;;5045639;28;20119;-56
2022/08/31 02:48:17;;;;;;;2.05;0.77;;;13.60;99.90;;;;;;5041130;28;20051;-55
2022/08/31 02:50:46;;;;;;;1.15;0.60;;;13.60;99.90;;;;;;5045708;28;20045;-55
2022/08/31 02:53:14;;;;;;;1.30;0.60;;;13.50;99.90;;;;;;5045703;28;20094;-56
2022/08/31 02:55:41;;;;;;;0.68;0.57;;;13.50;99.90;;;;;;5048278;28;20136;-56
2022/08/31 02:58:09;;;;;;;2.55;0.80;;;13.50;99.90;;;;;;5043481;28;20041;-55
2022/08/31 03:00:34;;;;;;;1.27;0.75;;;13.50;99.90;;;;;;5045801;28;20049;-57
2022/08/31 03:03:00;;;;;;;2.65;0.80;;;13.40;99.90;;;;;;5046481;28;20513;-55
2022/08/31 03:05:26;;;;;;;0.75;0.60;;;13.40;99.90;;;;;;5047456;28;20037;-56
2022/08/31 03:07:52;;;;;;;0.50;0.50;;;13.40;99.90;;;;;;5047557;28;20092;-54
2022/08/31 03:10:20;;;;;;;1.35;0.60;;;13.30;99.90;;;;;;5047777;28;20060;-53
2022/08/31 03:12:50;;;;;;;1.92;0.63;;;13.30;99.90;;;;;;5044821;28;20060;-57
2022/08/31 03:15:17;;;;;;;1.77;0.70;;;13.30;99.90;;;;;;5045653;28;20041;-55
2022/08/31 03:17:43;;;;;;;1.30;0.70;;;13.30;99.90;;;;;;5045645;28;20163;-57
2022/08/31 03:20:10;;;;;;;1.83;0.60;;;13.30;99.90;;;;;;5046291;28;20192;-56
2022/08/31 03:22:35;;;;;;;1.60;0.70;;;13.20;99.90;;;;;;5046461;28;20041;-55
2022/08/31 03:25:02;;;;;;;1.77;0.90;;;13.20;99.90;;;;;;5049024;28;20044;-54
2022/08/31 03:27:29;;;;;;;0.88;0.52;;;13.20;99.90;;;;;;5047664;28;20120;-55
2022/08/31 03:29:55;;;;;;;1.13;0.60;;;13.20;99.90;;;;;;5043356;28;20197;-55
2022/08/31 03:32:21;;;;;;;1.13;0.70;;;13.20;99.90;;;;;;5048684;28;20041;-56
2022/08/31 03:34:46;;;;;;;1.10;0.57;;;13.10;99.90;;;;;;5045876;28;20124;-55
2022/08/31 03:37:13;;;;;;;2.30;0.80;;;13.10;99.90;;;;;;5047749;28;20498;-55
2022/08/31 03:39:38;;;;;;;0.90;0.60;;;13.00;99.90;;;;;;5045710;28;20060;-57
2022/08/31 03:42:05;;;;;;;1.85;0.70;;;13.00;99.90;;;;;;5046573;28;20052;-54
2022/08/31 03:44:32;;;;;;;1.07;0.77;;;12.90;99.90;;;;;;5041039;28;20052;-55
2022/08/31 03:46:58;;;;;;;0.50;0.50;;;12.80;99.90;;;;;;5043397;28;20298;-54
2022/08/31 03:49:25;;;;;;;1.00;0.70;;;12.80;99.90;;;;;;5045115;28;21541;-57
2022/08/31 03:51:51;;;;;;;2.35;0.63;;;12.70;99.90;;;;;;5044208;28;20061;-56
2022/08/31 03:54:17;;;;;;;0.70;0.60;;;12.70;99.90;;;;;;5047033;28;20525;-55
2022/08/31 03:56:43;;;;;;;0.80;0.80;;;12.70;99.90;;;;;;5044529;28;20127;-55
2022/08/31 03:59:09;;;;;;;0.73;0.70;;;12.60;99.90;;;;;;5043352;28;20127;-55
2022/08/31 04:01:35;;;;;;;1.10;0.70;;;12.60;99.90;;;;;;5042735;28;20159;-56
2022/08/31 04:04:02;;;;;;;1.63;0.60;;;12.60;99.90;;;;;;5044882;28;20033;-54
2022/08/31 04:06:28;;;;;;;1.15;0.55;;;12.50;99.90;;;;;;5041844;28;20127;-55
2022/08/31 04:08:54;;;;;;;1.13;0.60;;;12.50;99.90;;;;;;5044315;28;20029;-54
2022/08/31 04:11:21;;;;;;;1.35;0.50;;;12.50;99.90;;;;;;5045509;28;20080;-54
2022/08/31 04:13:47;;;;;;;1.10;0.80;;;12.50;99.90;;;;;;5041298;28;20044;-53
2022/08/31 04:16:17;;;;;;;2.60;0.90;;;12.40;99.90;;;;;;5042862;28;20048;-55
2022/08/31 04:18:43;;;;;;;1.10;0.80;;;12.40;99.90;;;;;;5045081;28;20520;-55
2022/08/31 04:21:19;;;;;;;1.73;0.73;;;12.30;99.90;;;;;;5042825;28;20525;-51
2022/08/31 04:23:46;;;;;;;1.75;0.73;;;12.30;99.90;;;;;;5046591;28;20076;-55
2022/08/31 04:26:23;;;;;;;0.93;0.70;;;12.30;99.90;;;;;;5044617;28;20033;-56
2022/08/31 04:28:49;;;;;;;;;;;12.30;99.90;;;;;;5045368;28;20059;-53
2022/08/31 04:31:16;;;;;;;1.63;1.00;;;12.30;99.90;;;;;;5041349;28;20369;-57
2022/08/31 04:33:42;;;;;;;1.63;1.00;;;12.20;99.90;;;;;;5044251;28;20080;-55
2022/08/31 04:36:11;;;;;;;1.55;0.80;;;12.20;99.90;;;;;;5044133;28;20490;-55
2022/08/31 04:38:39;;;;;;;1.58;0.90;;;12.20;99.90;;;;;;5024225;28;20060;-56
2022/08/31 04:41:10;;;;;;;1.95;0.90;;;12.20;99.90;;;;;;5045140;28;20142;-55
2022/08/31 04:43:39;;;;;;;0.90;0.90;;;12.20;99.90;;;;;;5043957;28;20410;-53
2022/08/31 04:46:07;;;;;;;0.80;0.80;;;12.20;99.90;;;;;;5047200;28;20124;-53
2022/08/31 04:48:34;;;;;;;0.95;0.90;;;12.10;99.90;;;;;;5045104;28;20056;-55
2022/08/31 04:51:00;;;;;;;1.88;1.70;;;12.10;99.90;;;;;;5044509;28;20064;-51
2022/08/31 04:53:26;;;;;;;1.77;1.08;;;12.20;99.90;;;;;;5040696;28;20036;-52
2022/08/31 04:55:52;;;;;;;2.63;1.45;;;12.10;99.90;;;;;;5046653;28;20043;-53
2022/08/31 04:58:19;;;;;;;1.45;1.00;;;12.10;99.90;;;;;;5044264;28;20040;-50
2022/08/31 05:00:45;;;;;;;1.00;0.90;;;12.00;99.90;;;;;;5047365;28;20498;-52
2022/08/31 05:03:11;;;;;;;2.17;1.00;;;12.10;99.90;;;;;;5047207;28;20323;-54
2022/08/31 05:05:40;;;;;;;1.20;0.93;;;12.10;99.90;;;;;;5046469;28;20218;-52
2022/08/31 05:08:06;;;;;;;2.72;0.95;;;12.10;99.90;;;;;;5044713;28;20041;-54
2022/08/31 05:10:32;;;;;;;1.30;1.00;;;12.20;99.90;;;;;;5046628;28;20028;-55
2022/08/31 05:12:57;;;;;;;2.17;1.10;;;12.10;99.90;;;;;;5047830;28;20118;-53
2022/08/31 05:15:23;;;;;;;2.60;1.00;;;12.20;99.90;;;;;;5044980;28;20045;-57
2022/08/31 05:17:48;;;;;;;2.28;1.08;;;12.20;99.90;;;;;;5047652;28;20411;-52
2022/08/31 05:20:14;;;;;;;3.15;0.93;;;12.20;99.90;;;;;;5046621;28;20041;-54
2022/08/31 05:22:40;;;;;;;1.15;1.05;;;12.20;99.90;;;;;;5044379;28;20045;-50
2022/08/31 05:25:06;;;;;;;2.65;1.20;;;12.30;99.90;;;;;;5045573;28;20040;-54
2022/08/31 05:27:33;;;;;;;1.55;0.90;;;12.30;99.90;;;;;;5046401;28;20055;-54
2022/08/31 05:29:59;;;;;;;2.20;1.13;;;12.30;99.90;;;;;;5043951;28;20033;-54
2022/08/31 05:32:25;;;;;;;1.20;0.98;;;12.40;99.90;;;;;;5044812;28;20402;-55
2022/08/31 05:34:50;;;;;;;3.25;1.30;;;12.40;99.90;;;;;;5043172;28;20115;-54
2022/08/31 05:37:16;;;;;;;1.42;1.05;;;12.50;99.90;;;;;;5045542;28;20052;-52
2022/08/31 05:39:42;;;;;;;4.15;1.58;;;12.50;99.90;;;;;;5041598;28;20041;-53
2022/08/31 05:42:08;;;;;;;3.28;1.70;;;12.60;99.90;;;;;;5044723;28;20408;-54
2022/08/31 05:44:34;;;;;;;5.30;1.40;;;12.80;99.90;;;;;;5043904;28;20044;-51
2022/08/31 05:47:01;;;;;;;1.27;0.95;;;12.70;99.90;;;;;;5044532;28;20080;-56
2022/08/31 05:49:26;;;;;;;3.05;1.38;;;12.70;99.90;;;;;;5043018;28;20658;-54
2022/08/31 05:51:52;;;;;;;1.13;0.93;;;12.80;99.90;;;;;;5042884;28;20094;-55
2022/08/31 05:54:18;;;;;;;2.63;1.30;;;12.90;99.90;;;;;;5044609;28;20174;-56
2022/08/31 05:56:44;;;;;;;4.90;1.20;;;14.10;99.90;;;;;;5044565;28;20201;-53
2022/08/31 05:59:11;;;;;;;1.73;1.02;;;14.90;99.90;;;;;;5044925;28;20029;-56
2022/08/31 06:01:39;;;;;;;1.73;1.10;;;15.60;99.90;;;;;;5041310;28;20041;-56
2022/08/31 06:04:05;;;;;;;;;;;15.60;99.90;;;;;;5046554;28;20029;-54
2022/08/31 06:06:31;;;;;;;1.45;0.98;;;15.60;99.90;;;;;;5040446;28;19925;-53
2022/08/31 06:08:56;;;;;;;4.10;1.20;;;15.30;99.90;;;;;;5043758;28;20086;-55
2022/08/31 06:11:25;;;;;;;2.38;1.38;;;15.10;99.90;;;;;;5043419;28;20182;-55
2022/08/31 06:13:52;;;;;;;2.20;1.00;;;14.90;99.90;;;;;;5043737;28;20041;-57
2022/08/31 06:16:19;;;;;;;2.92;1.23;;;14.90;99.90;;;;;;5040458;28;20052;-55
2022/08/31 06:18:49;;;;;;;1.77;1.20;;;14.90;99.90;;;;;;5044747;28;20049;-56
2022/08/31 06:21:20;;;;;;;1.33;1.10;;;15.00;99.90;;;;;;5044212;28;20040;-57
2022/08/31 06:23:48;;;;;;;1.67;0.90;;;15.10;99.90;;;;;;5044735;28;20095;-55
2022/08/31 06:26:15;;;;;;;;;;;15.20;99.90;;;;;;5045127;28;20045;-57
2022/08/31 06:28:48;;;;;;;1.73;1.07;;;15.80;99.90;;;;;;5042211;28;20037;-56
2022/08/31 06:31:25;;;;;;;2.90;1.30;;;16.10;99.90;;;;;;5043820;28;20329;-57
2022/08/31 06:33:51;;;;;;;1.45;1.10;;;16.30;99.90;;;;;;5042897;28;20125;-56
2022/08/31 06:36:19;;;;;;;3.67;1.10;;;16.50;99.90;;;;;;5037571;28;20250;-58
2022/08/31 06:38:44;;;;;;;;;;;17.00;99.90;;;;;;5048581;28;20041;-56
2022/08/31 06:41:19;;;;;;;2.28;1.13;;;16.90;99.90;;;;;;5047930;28;20391;-56
2022/08/31 06:43:45;;;;;;;2.47;0.70;;;17.20;99.90;;;;;;5044531;28;20050;-56
2022/08/31 06:46:12;;;;;;;1.85;1.00;;;17.50;99.90;;;;;;5042300;28;20056;-56
2022/08/31 06:48:39;;;;;;;3.05;1.00;;;17.80;99.90;;;;;;5038888;28;20086;-56
2022/08/31 06:51:05;;;;;;;2.90;1.10;;;18.00;99.90;;;;;;5036264;28;20530;-56
2022/08/31 06:53:32;;;;;;;1.27;0.90;;;17.80;99.90;;;;;;5042016;28;20086;-57
2022/08/31 06:56:03;;;;;;;1.55;0.95;;;17.80;99.90;;;;;;5045026;28;20087;-55
2022/08/31 06:58:28;;;;;;;2.25;1.30;;;17.70;99.90;;;;;;5044424;28;20033;-57
2022/08/31 07:00:57;;;;;;;1.63;1.10;;;18.30;99.90;;;;;;5043243;28;20559;-56
2022/08/31 07:03:31;;;;;;;1.88;0.98;;;18.60;99.90;;;;;;5048453;28;20049;-56
2022/08/31 07:05:58;;;;;;;1.95;1.10;;;18.90;99.90;;;;;;5049713;28;20044;-56
2022/08/31 07:08:24;;;;;;;1.93;0.90;;;19.30;99.90;;;;;;5047818;28;20041;-56
2022/08/31 07:10:49;;;;;;;1.67;1.00;;;19.70;99.90;;;;;;5047758;28;20396;-55
2022/08/31 07:13:15;;;;;;;1.33;0.90;;;19.70;99.90;;;;;;5056507;28;20046;-57
2022/08/31 07:15:41;;;;;;;2.13;0.90;;;20.00;99.90;;;;;;5045745;28;20041;-56
2022/08/31 07:18:06;;;;;;;3.95;1.00;;;20.20;99.90;;;;;;5042149;28;20048;-56
2022/08/31 07:20:32;;;;;;;1.92;1.10;;;19.20;99.90;;;;;;5048318;28;20756;-53
2022/08/31 07:22:57;;;;;;;3.50;1.20;;;18.80;99.90;;;;;;5049734;28;20060;-56
2022/08/31 07:25:25;;;;;;;0.95;0.80;;;18.10;99.90;;;;;;5047064;28;20102;-54
2022/08/31 07:27:54;;;;;;;1.90;0.90;;;17.50;99.90;;;;;;5049326;28;20037;-57
2022/08/31 07:30:20;;;;;;;1.98;0.90;;;17.40;99.90;;;;;;5043834;28;20163;-53
2022/08/31 07:32:46;;;;;;;6.20;1.08;;;17.20;99.90;;;;;;5049922;28;20041;-55
2022/08/31 07:35:12;;;;;;;1.42;0.80;;;17.10;99.90;;;;;;5034965;28;20035;-56
2022/08/31 07:43:06;;;;;;;2.58;0.80;;;17.10;99.90;;;;;;5049085;28;20076;-55
2022/08/31 07:45:32;;;;;;;1.73;1.00;;;17.20;99.90;;;;;;5047008;28;20129;-56
2022/08/31 07:47:59;;;;;;;2.03;0.90;;;17.50;99.90;;;;;;5045348;28;20076;-56
2022/08/31 07:50:26;;;;;;;0.57;0.55;;;17.40;99.90;;;;;;5049567;28;20099;-55
2022/08/31 07:52:54;;;;;;;1.50;0.88;;;17.50;99.90;;;;;;5050426;28;20156;-57
2022/08/31 07:55:22;;;;;;;1.02;0.73;;;17.70;99.90;;;;;;5051036;28;20041;-57
2022/08/31 07:57:50;;;;;;;1.77;0.90;;;17.70;99.90;;;;;;5053533;28;20053;-56
2022/08/31 08:00:19;;;;;;;;;;;17.80;99.90;;;;;;5050650;28;20075;-56
2022/08/31 08:02:45;;;;;;;2.80;0.90;;;17.90;99.90;;;;;;5047849;28;19927;-57
2022/08/31 08:05:19;;;;;;;3.45;0.80;;;17.90;99.90;;;;;;5046262;28;20040;-56
2022/08/31 08:07:49;;;;;;;1.10;0.90;;;17.90;99.90;;;;;;5052791;28;20045;-56
2022/08/31 08:10:17;;;;;;;1.58;0.70;;;17.90;99.90;;;;;;5051730;28;20554;-57
2022/08/31 08:12:47;;;;;;;1.23;0.63;;;17.90;99.90;;;;;;5049993;28;20053;-56
2022/08/31 08:15:13;;;;;;;1.15;0.85;;;18.00;99.90;;;;;;5048207;28;20045;-57
2022/08/31 08:17:39;;;;;;;2.72;0.80;;;18.00;99.90;;;;;;5050069;28;20399;-57
2022/08/31 08:20:06;;;;;;;1.75;0.85;;;18.30;99.90;;;;;;5046071;28;20033;-57
2022/08/31 08:22:32;;;;;;;0.70;0.70;;;18.50;99.90;;;;;;5031168;28;20453;-57
2022/08/31 08:24:59;;;;;;;2.15;0.95;;;18.60;99.90;;;;;;5041253;28;20045;-56
2022/08/31 08:27:25;;;;;;;0.68;0.60;;;18.60;99.90;;;;;;5041401;28;20043;-56
2022/08/31 08:29:51;;;;;;;4.20;0.70;;;18.50;99.90;;;;;;5048465;28;20033;-55
2022/08/31 08:32:17;;;;;;;1.27;0.73;;;18.40;99.90;;;;;;5048870;28;20560;-56
2022/08/31 08:34:44;;;;;;;1.25;0.63;;;18.30;99.90;;;;;;5049025;28;20044;-57
2022/08/31 08:37:10;;;;;;;2.03;0.70;;;18.20;99.90;;;;;;5051494;28;20059;-55
2022/08/31 08:39:37;;;;;;;2.53;0.80;;;18.30;99.90;;;;;;5048108;28;20052;-56
2022/08/31 08:42:07;;;;;;;1.58;0.77;;;18.40;99.90;;;;;;5044777;28;21893;-57
2022/08/31 08:44:33;;;;;;;1.35;0.75;;;18.40;99.90;;;;;;5050950;28;20156;-56
2022/08/31 08:47:04;;;;;;;2.40;0.85;;;18.50;99.90;;;;;;5048854;28;20117;-56
2022/08/31 08:49:49;;;;;;;3.33;1.00;;;18.60;99.90;;;;;;5038543;28;20047;-57
2022/08/31 08:52:30;;;;;;;1.80;1.10;;;18.70;99.90;;;;;;5033127;28;20144;-56
2022/08/31 08:55:01;;;;;;;1.95;0.80;;;18.70;99.90;;;;;;5035245;28;20040;-56
2022/08/31 08:57:30;;;;;;;2.35;0.80;;;18.90;99.90;;;;;;5038087;28;20472;-57
2022/08/31 08:59:58;;;;;;;0.80;0.80;;;19.00;99.90;;;;;;5039194;28;20045;-56
2022/08/31 09:02:34;;;;;;;1.48;0.82;;;19.30;99.90;;;;;;5043259;28;20045;-55
2022/08/31 09:05:23;;;;;;;2.13;0.88;;;19.40;99.30;;;;;;5042336;28;20041;-57
2022/08/31 09:07:59;;;;;;;1.58;0.80;;;19.60;99.00;;;;;;5043599;28;20128;-57
2022/08/31 09:10:40;;;;;;;5.07;0.93;;;19.50;98.70;;;;;;5042640;28;20045;-57
2022/08/31 09:13:12;;;;;;;2.70;1.20;;;19.70;98.00;;;;;;5043420;28;20540;-57
2022/08/31 09:15:43;;;;;;;2.75;0.80;;;19.60;98.10;;;;;;5041631;28;20056;-57
2022/08/31 09:18:33;;;;;;;1.55;0.80;;;19.60;98.00;;;;;;5040525;28;20056;-56
2022/08/31 09:21:03;;;;;;;2.88;0.75;;;19.70;97.40;;;;;;5042638;28;20041;-56
2022/08/31 09:23:36;;;;;;;1.95;0.60;;;19.80;97.90;;;;;;5049643;28;20048;-55
2022/08/31 09:26:03;;;;;;;1.45;0.70;;;20.10;97.20;;;;;;5048092;28;20053;-57
2022/08/31 09:28:43;;;;;;;4.40;0.73;;;20.00;96.00;;;;;;5043069;28;20111;-57
2022/08/31 09:31:31;;;;;;;2.55;0.70;;;20.10;95.90;;;;;;5040213;28;20501;-57
2022/08/31 09:33:57;;;;;;;1.70;0.65;;;20.10;96.00;;;;;;5046593;28;20033;-57
2022/08/31 09:36:32;;;;;;;1.52;0.70;;;20.00;95.00;;;;;;5051071;28;20510;-56
2022/08/31 09:39:13;;;;;;;3.92;0.85;;;20.30;95.50;;;;;;5048453;28;20118;-57
2022/08/31 09:41:38;;;;;;;1.52;0.70;;;20.20;95.30;;;;;;5050373;28;20045;-56
2022/08/31 09:44:22;;;;;;;5.13;0.77;;;20.20;94.30;;;;;;5049307;28;20170;-56
2022/08/31 09:46:50;;;;;;;2.60;0.70;;;20.20;94.60;;;;;;5051136;28;20044;-56
2022/08/31 09:49:25;;;;;;;1.45;0.70;;;20.20;94.30;;;;;;5050494;28;20033;-56
2022/08/31 09:51:51;;;;;;;1.38;0.77;;;20.40;94.90;;;;;;5049019;28;20510;-57
2022/08/31 09:57:09;;;;;;;2.00;0.70;;;20.50;94.30;;;;;;5048407;28;20446;-56
2022/08/31 09:59:45;;;;;;;3.60;0.70;;;20.60;95.40;;;;;;5048410;28;20155;-58
2022/08/31 10:02:25;;;;;;;2.50;0.70;;;20.60;94.30;;;;;;5035271;28;20048;-56
2022/08/31 10:05:04;;;;;;;0.85;0.73;;;20.70;94.60;;;;;;5051539;28;20116;-56
2022/08/31 10:07:43;;;;;;;2.05;0.70;;;20.70;93.50;;;;;;5049745;28;20147;-56
2022/08/31 10:10:34;;;;;;;1.30;0.70;;;21.00;92.80;;;;;;5050878;28;20045;-56
2022/08/31 10:13:05;;;;;;;0.50;0.50;;;21.20;92.30;;;;;;5050865;28;20045;-58
2022/08/31 10:15:58;;;;;;;2.53;0.90;;;21.10;91.70;;;;;;5049803;28;20126;-57
2022/08/31 10:18:46;;;;;;;0.98;0.55;;;21.10;91.70;;;;;;5053459;28;20471;-56
2022/08/31 10:21:20;;;;;;;1.10;0.70;;;20.90;91.30;;;;;;5039931;28;20033;-57
2022/08/31 10:23:55;;;;;;;1.25;0.70;;;21.10;91.90;;;;;;5053675;28;20179;-56
2022/08/31 10:26:35;;;;;;;1.38;0.63;;;21.20;92.10;;;;;;5053488;28;20510;-57
2022/08/31 10:29:13;;;;;;;4.75;0.75;;;21.10;90.80;;;;;;5053702;28;20037;-56
2022/08/31 10:31:44;;;;;;;1.63;0.80;;;21.20;90.80;;;;;;5052929;28;20494;-56
2022/08/31 10:37:18;;;;;;;2.13;1.00;;;21.40;91.10;;;;;;5054151;28;20053;-57
2022/08/31 10:39:48;;;;;;;1.67;0.77;;;21.60;91.70;;;;;;5054228;28;20053;-57
2022/08/31 10:42:25;;;;;;;1.02;0.68;;;21.60;91.70;;;;;;5047078;28;20048;-57
2022/08/31 10:45:02;;;;;;;2.17;0.70;;;21.60;89.80;;;;;;5046499;28;20113;-56
2022/08/31 10:47:30;;;;;;;2.70;0.85;;;21.60;89.40;;;;;;5044679;28;20061;-58
2022/08/31 10:49:58;;;;;;;3.35;0.80;;;21.90;90.20;;;;;;5042859;28;20340;-57
2022/08/31 10:52:52;;;;;;;0.77;0.77;;;21.80;90.00;;;;;;5042451;28;20518;-57
2022/08/31 10:55:27;;;;;;;0.93;0.80;;;21.60;88.30;;;;;;5047044;28;20044;-55
2022/08/31 10:58:16;;;;;;;2.97;0.70;;;21.40;87.50;;;;;;5046298;28;20049;-57
2022/08/31 11:01:08;;;;;;;2.63;0.70;;;21.70;89.10;;;;;;5049858;28;20056;-56
2022/08/31 11:03:49;;;;;;;1.75;0.60;;;21.70;88.10;;;;;;5049477;28;20048;-57
2022/08/31 11:06:30;;;;;;;7.97;1.25;;;21.70;87.90;;;;;;5052789;28;20498;-56
2022/08/31 11:09:14;;;;;;;1.25;0.68;;;21.70;88.80;;;;;;5053397;28;20449;-55
2022/08/31 11:11:44;;;;;;;0.75;0.45;;;22.10;90.00;;;;;;5052368;28;20439;-55
2022/08/31 11:14:32;;;;;;;0.68;0.65;;;22.00;88.90;;;;;;5052714;28;20045;-56
2022/08/31 11:17:25;;;;;;;4.50;0.77;;;22.00;88.50;;;;;;5053284;28;20053;-56
2022/08/31 11:20:19;;;;;;;1.25;0.88;;;22.20;89.80;;;;;;5033868;28;20046;-56
2022/08/31 11:23:29;;;;;;;1.30;0.73;;;22.20;88.60;;;;;;5049295;28;20041;-55
2022/08/31 11:26:05;;;;;;;1.83;0.63;;;22.50;89.30;;;;;;5040580;28;20052;-55
2022/08/31 11:28:47;;;;;;;1.23;0.70;;;22.30;86.80;;;;;;5049960;28;20503;-55
2022/08/31 11:31:24;;;;;;;0.98;0.75;;;22.40;88.00;;;;;;5043311;28;20511;-56
2022/08/31 11:33:56;;;;;;;1.33;0.70;;;22.30;86.70;;;;;;5043124;28;20092;-54
2022/08/31 11:36:59;;;;;;;1.50;0.60;;;22.40;86.60;;;;;;5044698;28;20094;-55
2022/08/31 11:39:35;;;;;;;2.30;0.90;;;22.40;87.60;;;;;;5018994;28;20053;-56
2022/08/31 11:42:02;;;;;;;2.33;0.90;;;22.70;86.80;;;;;;5019571;28;20161;-56
2022/08/31 11:44:35;;;;;;;0.93;0.80;;;22.70;85.80;;;;;;5020058;28;20127;-54
2022/08/31 11:47:15;;;;;;;1.75;0.60;;;22.70;86.60;;;;;;5029869;28;20300;-56
2022/08/31 11:49:45;;;;;;;2.05;0.80;;;22.70;84.70;;;;;;5030493;28;20060;-55
2022/08/31 11:52:30;;;;;;;5.53;0.60;;;22.80;85.60;;;;;;5030753;28;20041;-55
2022/08/31 11:55:15;;;;;;;1.25;0.68;;;22.80;85.00;;;;;;5028708;28;20056;-56
2022/08/31 11:58:04;;;;;;;1.60;0.52;;;22.80;86.10;;;;;;5029835;28;20133;-54
2022/08/31 12:00:47;;;;;;;1.13;0.60;;;22.90;84.80;;;;;;5030616;28;20100;-56
2022/08/31 12:03:49;;;;;;;4.45;1.23;;;22.90;82.70;;;;;;5029942;28;20081;-56
2022/08/31 12:06:24;;;;;;;1.88;0.75;;;23.00;81.70;;;;;;5012896;28;20053;-56
2022/08/31 12:09:10;;;;;;;4.18;0.95;;;23.00;79.30;;;;;;5030822;28;20041;-56
2022/08/31 12:11:46;;;;;;;1.55;0.70;;;23.00;80.00;;;;;;5034867;28;20049;-58
2022/08/31 12:14:17;;;;;;;0.85;0.70;;;23.00;80.30;;;;;;5034665;28;20128;-57
2022/08/31 12:17:16;;;;;;;0.90;0.63;;;23.20;80.10;;;;;;5045750;28;20064;-57
2022/08/31 12:20:07;;;;;;;2.17;0.60;;;23.10;78.50;;;;;;5043052;28;20045;-56
2022/08/31 12:26:05;;;;;;;1.15;0.70;;;23.30;80.10;;;;;;5045266;28;20135;-57
2022/08/31 12:28:59;;;;;;;1.98;0.60;;;23.10;78.00;;;;;;5041175;28;20061;-57
2022/08/31 12:31:25;;;;;;;1.40;0.70;;;23.10;76.70;;;;;;5046920;28;20044;-56
2022/08/31 12:34:04;;;;;;;2.72;0.50;;;23.30;76.30;;;;;;5043680;28;20041;-58
2022/08/31 12:36:33;;;;;;;5.93;0.80;;;23.20;76.80;;;;;;5012427;28;20041;-56
2022/08/31 12:39:09;;;;;;;1.42;0.70;;;23.20;76.10;;;;;;5039836;28;20043;-57
2022/08/31 12:41:54;;;;;;;0.88;0.63;;;23.30;76.70;;;;;;5034329;28;20063;-56
2022/08/31 12:44:37;;;;;;;1.45;0.65;;;23.40;76.80;;;;;;5035959;28;20070;-56
2022/08/31 12:47:23;;;;;;;2.65;0.80;;;23.40;74.60;;;;;;5038499;28;20068;-56
2022/08/31 12:50:10;;;;;;;3.47;0.95;;;23.60;75.70;;;;;;5036093;28;20598;-57
2022/08/31 12:52:52;;;;;;;3.40;0.82;;;23.70;75.30;;;;;;5039031;28;20053;-57
2022/08/31 12:55:42;;;;;;;2.20;1.05;;;23.80;74.20;;;;;;5036176;28;20047;-55
2022/08/31 12:58:25;;;;;;;1.98;0.63;;;23.90;74.70;;;;;;5034746;28;20040;-56
2022/08/31 13:00:51;;;;;;;0.82;0.63;;;23.70;74.00;;;;;;5039301;28;20530;-57
2022/08/31 13:03:24;;;;;;;0.80;0.70;;;24.00;75.10;;;;;;5038942;28;20037;-56
2022/08/31 13:06:12;;;;;;;2.13;0.70;;;23.80;73.60;;;;;;5043072;28;20053;-57
2022/08/31 13:08:44;;;;;;;1.67;0.70;;;23.60;72.70;;;;;;5043651;28;20040;-56
2022/08/31 13:11:25;;;;;;;2.33;0.60;;;23.60;74.00;;;;;;5043476;28;20400;-58
2022/08/31 13:14:09;;;;;;;2.45;1.05;;;24.00;73.30;;;;;;5043410;28;20490;-56
2022/08/31 13:16:38;;;;;;;6.20;0.95;;;24.00;73.90;;;;;;5042999;28;20051;-57
2022/08/31 13:19:06;;;;;;;2.00;0.80;;;24.10;72.00;;;;;;5044225;28;20518;-57
2022/08/31 13:21:34;;;;;;;2.70;0.80;;;24.00;72.20;;;;;;5042868;28;20053;-55
2022/08/31 13:24:09;;;;;;;5.88;0.70;;;24.20;73.50;;;;;;5040475;28;20036;-56
2022/08/31 13:26:35;;;;;;;1.33;0.60;;;24.30;73.30;;;;;;5046445;28;20052;-57